Time;durP1;ratioP1;P1;durP2;ratioP2;P2;SDS_P1;SDS_P2;PMS_P1;PMS_P2;Temp;Humidity;BMP_temperature;BMP_pressure;BME280_temperature;BME280_humidity;BME280_pressure;Samples;Min_cycle;Max_cycle;Signal;HPM_P1;HPM_P2
2022/04/25 00:01:15;;;;;;;1.40;0.80;;;;;;;;;;5092917;28;20493;-71
2022/04/25 00:03:43;;;;;;;1.50;0.90;;;;;;;;;;5092895;28;20450;-72
2022/04/25 00:06:10;;;;;;;1.40;0.80;;;;;;;;;;5092885;28;20455;-72
2022/04/25 00:08:38;;;;;;;1.20;0.80;;;;;;;;;;5094421;28;20485;-73
2022/04/25 00:11:06;;;;;;;1.57;1.10;;;;;;;;;;5096810;28;20454;-72
2022/04/25 00:13:33;;;;;;;1.30;0.90;;;;;;;;;;5096699;28;20955;-72
2022/04/25 00:16:00;;;;;;;1.57;1.10;;;;;;;;;;5095882;28;20525;-72
2022/04/25 00:18:27;;;;;;;1.20;0.80;;;;;;;;;;5096537;28;20490;-72
2022/04/25 00:20:55;;;;;;;1.30;0.80;;;;;;;;;;5096578;28;20821;-72
2022/04/25 00:23:22;;;;;;;1.70;1.40;;;;;;;;;;5096115;28;20475;-72
2022/04/25 00:25:51;;;;;;;1.50;1.00;;;;;;;;;;5096556;28;20477;-72
2022/04/25 00:28:18;;;;;;;1.30;0.80;;;;;;;;;;5096458;28;20950;-72
2022/04/25 00:30:47;;;;;;;2.57;1.90;;;;;;;;;;5096788;28;20822;-72
2022/04/25 00:33:14;;;;;;;1.30;0.80;;;;;;;;;;5096457;28;20462;-72
2022/04/25 00:35:41;;;;;;;1.27;0.93;;;;;;;;;;5096238;28;20454;-72
2022/04/25 00:38:09;;;;;;;2.53;0.90;;;;;;;;;;5096253;28;20490;-72
2022/04/25 00:40:36;;;;;;;1.40;0.90;;;;;;;;;;5096558;28;20477;-72
2022/04/25 00:43:05;;;;;;;1.30;0.90;;;;;;;;;;5096247;28;20461;-72
2022/04/25 00:45:33;;;;;;;1.20;0.80;;;;;;;;;;5096166;28;20816;-72
2022/04/25 00:48:00;;;;;;;1.40;0.90;;;;;;;;;;5095986;28;20451;-72
2022/04/25 00:50:28;;;;;;;1.40;0.80;;;;;;;;;;5096280;28;20470;-72
2022/04/25 00:52:55;;;;;;;1.40;0.90;;;;;;;;;;5096008;28;20459;-72
2022/04/25 00:55:22;;;;;;;1.40;0.90;;;;;;;;;;5095818;28;20446;-72
2022/04/25 00:57:50;;;;;;;1.40;0.80;;;;;;;;;;5096056;28;20478;-72
2022/04/25 01:00:19;;;;;;;1.20;0.80;;;;;;;;;;5095824;28;20473;-72
2022/04/25 01:02:46;;;;;;;1.57;1.10;;;;;;;;;;5096015;28;20451;-72
2022/04/25 01:05:13;;;;;;;2.40;0.80;;;;;;;;;;5095715;28;20545;-71
2022/04/25 01:07:40;;;;;;;1.90;1.13;;;;;;;;;;5095845;28;20955;-71
2022/04/25 01:10:09;;;;;;;1.50;1.10;;;;;;;;;;5095768;28;20496;-72
2022/04/25 01:12:36;;;;;;;1.40;1.10;;;;;;;;;;5095857;28;20449;-72
2022/04/25 01:15:05;;;;;;;1.43;1.00;;;;;;;;;;5095368;28;20442;-72
2022/04/25 01:17:34;;;;;;;1.30;0.90;;;;;;;;;;5095710;28;20486;-72
2022/04/25 01:20:02;;;;;;;1.40;1.00;;;;;;;;;;5094850;28;20474;-72
2022/04/25 01:22:29;;;;;;;1.67;1.00;;;;;;;;;;5095290;28;20519;-72
2022/04/25 01:27:43;;;;;;;1.30;0.80;;;;;;;;;;5095455;28;20512;-72
2022/04/25 01:30:11;;;;;;;1.33;0.87;;;;;;;;;;5095274;28;20998;-72
2022/04/25 01:32:38;;;;;;;1.50;0.90;;;;;;;;;;5095266;28;20447;-72
2022/04/25 01:35:06;;;;;;;1.30;1.00;;;;;;;;;;5095054;28;20473;-72
2022/04/25 01:37:33;;;;;;;1.57;1.07;;;;;;;;;;5095221;28;21015;-72
2022/04/25 01:40:02;;;;;;;1.43;0.83;;;;;;;;;;5095057;28;20477;-72
2022/04/25 01:42:29;;;;;;;1.40;0.90;;;;;;;;;;5095223;28;20459;-72
2022/04/25 01:44:56;;;;;;;1.20;0.80;;;;;;;;;;5094819;28;20455;-71
2022/04/25 01:47:23;;;;;;;1.30;0.90;;;;;;;;;;5095122;28;20443;-72
2022/04/25 01:49:50;;;;;;;1.30;0.87;;;;;;;;;;5094984;28;20971;-72
2022/04/25 01:52:20;;;;;;;1.67;1.10;;;;;;;;;;5094780;28;20545;-72
2022/04/25 01:54:47;;;;;;;1.70;1.00;;;;;;;;;;5094711;28;20459;-72
2022/04/25 01:57:16;;;;;;;1.20;0.70;;;;;;;;;;5094735;28;20486;-72
2022/04/25 01:59:44;;;;;;;1.20;0.80;;;;;;;;;;5094909;28;20502;-72
2022/04/25 02:02:12;;;;;;;1.20;0.80;;;;;;;;;;5094631;28;20875;-72
2022/04/25 02:04:39;;;;;;;1.40;0.97;;;;;;;;;;5094552;28;20450;-72
2022/04/25 02:07:07;;;;;;;1.23;0.80;;;;;;;;;;5094508;28;20808;-72
2022/04/25 02:09:34;;;;;;;1.40;0.90;;;;;;;;;;5094648;28;20528;-72
2022/04/25 02:12:01;;;;;;;1.20;0.80;;;;;;;;;;5094475;28;20487;-72
2022/04/25 02:14:29;;;;;;;1.50;1.00;;;;;;;;;;5094290;28;20461;-72
2022/04/25 02:16:58;;;;;;;1.30;0.90;;;;;;;;;;5094474;28;20944;-72
2022/04/25 02:19:25;;;;;;;1.20;0.70;;;;;;;;;;5094525;28;20482;-71
2022/04/25 02:21:52;;;;;;;1.77;0.80;;;;;;;;;;5094124;28;20447;-72
2022/04/25 02:24:19;;;;;;;1.33;0.90;;;;;;;;;;5094325;28;20455;-72
2022/04/25 02:26:48;;;;;;;1.20;0.70;;;;;;;;;;5094417;28;20466;-72
2022/04/25 02:29:15;;;;;;;1.20;0.80;;;;;;;;;;5094219;28;20467;-72
2022/04/25 02:31:44;;;;;;;1.57;1.10;;;;;;;;;;5093122;28;20450;-72
2022/04/25 02:34:11;;;;;;;1.40;0.90;;;;;;;;;;5093792;28;20457;-72
2022/04/25 02:36:38;;;;;;;1.73;1.30;;;;;;;;;;5094079;28;20446;-72
2022/04/25 02:39:05;;;;;;;3.73;2.23;;;;;;;;;;5093980;28;20498;-72
2022/04/25 02:41:33;;;;;;;1.67;1.10;;;;;;;;;;5094054;28;20447;-72
2022/04/25 02:44:00;;;;;;;1.20;0.77;;;;;;;;;;5093695;28;20831;-72
2022/04/25 02:46:27;;;;;;;1.50;0.90;;;;;;;;;;5093982;28;20454;-72
2022/04/25 02:48:55;;;;;;;1.40;1.00;;;;;;;;;;5093657;28;20519;-72
2022/04/25 02:51:23;;;;;;;1.50;0.80;;;;;;;;;;5093667;28;20457;-72
2022/04/25 02:53:50;;;;;;;1.70;1.03;;;;;;;;;;5093658;28;20482;-72
2022/04/25 02:56:17;;;;;;;1.30;0.83;;;;;;;;;;5093751;28;20462;-72
2022/04/25 02:58:44;;;;;;;1.50;0.97;;;;;;;;;;5093478;28;20493;-72
2022/04/25 03:01:12;;;;;;;2.40;2.00;;;;;;;;;;5093595;28;20450;-72
2022/04/25 03:03:39;;;;;;;2.70;1.80;;;;;;;;;;5093482;28;20461;-71
2022/04/25 03:06:08;;;;;;;1.20;0.80;;;;;;;;;;5093441;28;20461;-71
2022/04/25 03:08:36;;;;;;;1.50;1.00;;;;;;;;;;5093449;28;20474;-71
2022/04/25 03:11:04;;;;;;;1.37;0.87;;;;;;;;;;5093462;28;20532;-72
2022/04/25 03:13:34;;;;;;;1.33;0.87;;;;;;;;;;5093322;28;20459;-72
2022/04/25 03:16:01;;;;;;;1.83;1.20;;;;;;;;;;5093430;28;20463;-72
2022/04/25 03:18:29;;;;;;;1.60;1.00;;;;;;;;;;5093408;28;20999;-72
2022/04/25 03:20:56;;;;;;;1.30;0.90;;;;;;;;;;5093422;28;20567;-72
2022/04/25 03:23:25;;;;;;;3.33;1.93;;;;;;;;;;5092925;28;20465;-72
2022/04/25 03:25:52;;;;;;;1.97;1.50;;;;;;;;;;5093143;28;20453;-72
2022/04/25 03:28:20;;;;;;;1.47;1.10;;;;;;;;;;5093041;28;20455;-72
2022/04/25 03:30:47;;;;;;;1.50;1.07;;;;;;;;;;5093315;28;20873;-72
2022/04/25 03:33:15;;;;;;;2.30;1.23;;;;;;;;;;5093261;28;20462;-72
2022/04/25 03:35:43;;;;;;;1.77;1.23;;;;;;;;;;5093179;28;20879;-72
2022/04/25 03:38:10;;;;;;;1.50;1.03;;;;;;;;;;5092948;28;20478;-72
2022/04/25 03:40:40;;;;;;;1.60;1.10;;;;;;;;;;5093241;28;20897;-72
2022/04/25 03:43:07;;;;;;;1.47;1.07;;;;;;;;;;5092650;28;20910;-72
2022/04/25 03:45:35;;;;;;;1.47;1.10;;;;;;;;;;5093003;28;20493;-72
2022/04/25 03:48:02;;;;;;;1.50;1.00;;;;;;;;;;5093035;28;20814;-72
2022/04/25 03:50:31;;;;;;;1.30;0.80;;;;;;;;;;5093173;28;20992;-72
2022/04/25 03:52:58;;;;;;;1.53;1.00;;;;;;;;;;5092966;28;20462;-72
2022/04/25 03:58:26;;;;;;;1.70;1.10;;;;;;;;;;5030891;28;20477;-72
2022/04/25 04:00:53;;;;;;;2.20;1.80;;;;;;;;;;5030739;28;20471;-72
2022/04/25 04:03:21;;;;;;;5.20;1.20;;;;;;;;;;5058165;28;20453;-72
2022/04/25 04:05:48;;;;;;;1.60;1.10;;;;;;;;;;5092676;28;20451;-72
2022/04/25 04:08:15;;;;;;;1.60;1.00;;;;;;;;;;5092637;28;20450;-72
2022/04/25 04:10:42;;;;;;;2.50;1.43;;;;;;;;;;5093081;28;20454;-72
2022/04/25 04:13:09;;;;;;;1.60;1.07;;;;;;;;;;5092860;28;20939;-71
2022/04/25 04:15:38;;;;;;;1.80;1.50;;;;;;;;;;5092630;28;20970;-72
2022/04/25 04:18:05;;;;;;;5.40;3.33;;;;;;;;;;5092593;28;20493;-72
2022/04/25 04:20:33;;;;;;;2.60;1.53;;;;;;;;;;5092881;28;20482;-71
2022/04/25 04:23:00;;;;;;;1.70;1.00;;;;;;;;;;5092173;28;20494;-71
2022/04/25 04:25:27;;;;;;;1.70;1.17;;;;;;;;;;5092576;28;20454;-71
2022/04/25 04:27:54;;;;;;;1.40;1.10;;;;;;;;;;5092719;28;20446;-72
2022/04/25 04:30:22;;;;;;;1.50;1.00;;;;;;;;;;5092805;28;20469;-71
2022/04/25 04:32:50;;;;;;;2.17;1.20;;;;;;;;;;5092725;28;20550;-72
2022/04/25 04:36:17;;;;;;;2.17;1.50;;;;;;;;;;5092420;28;20454;-71
2022/04/25 04:38:07;;;;;;;1.60;1.00;;;;;;;;;;5092220;28;20821;-72
2022/04/25 04:40:34;;;;;;;3.63;1.40;;;;;;;;;;5092841;28;20482;-72
2022/04/25 04:43:01;;;;;;;2.80;2.00;;;;;;;;;;5092463;28;20451;-72
2022/04/25 04:45:28;;;;;;;2.13;1.90;;;;;;;;;;5092405;28;20446;-73
2022/04/25 04:47:57;;;;;;;3.80;2.60;;;;;;;;;;5092554;28;20454;-72
2022/04/25 04:50:24;;;;;;;3.57;1.87;;;;;;;;;;5092682;28;20481;-72
2022/04/25 04:52:51;;;;;;;2.20;1.90;;;;;;;;;;5092532;28;20461;-72
2022/04/25 04:55:19;;;;;;;2.73;1.83;;;;;;;;;;5093114;28;20955;-72
2022/04/25 04:57:46;;;;;;;2.00;1.60;;;;;;;;;;5095994;28;20808;-72
2022/04/25 05:00:14;;;;;;;3.20;2.00;;;;;;;;;;5095857;28;21005;-72
2022/04/25 05:02:41;;;;;;;1.90;1.43;;;;;;;;;;5096024;28;20453;-72
2022/04/25 05:05:10;;;;;;;3.03;1.80;;;;;;;;;;5095654;28;20455;-72
2022/04/25 05:07:38;;;;;;;4.13;1.50;;;;;;;;;;5096016;28;20442;-72
2022/04/25 05:10:06;;;;;;;3.00;2.03;;;;;;;;;;5096123;28;20467;-71
2022/04/25 05:12:43;;;;;;;3.83;1.40;;;;;;;;;;5095839;28;20462;-73
2022/04/25 05:15:11;;;;;;;3.63;2.00;;;;;;;;;;5095498;28;20446;-72
2022/04/25 05:17:40;;;;;;;2.70;1.80;;;;;;;;;;5095685;28;20826;-72
2022/04/25 05:20:08;;;;;;;3.50;2.17;;;;;;;;;;5095355;28;20592;-72
2022/04/25 05:22:39;;;;;;;3.10;1.73;;;;;;;;;;5095079;28;20451;-72
2022/04/25 05:25:06;;;;;;;4.47;2.40;;;;;;;;;;5095043;28;20451;-72
2022/04/25 05:27:33;;;;;;;3.50;2.17;;;;;;;;;;5095329;28;20451;-72
2022/04/25 05:30:00;;;;;;;6.00;3.70;;;;;;;;;;5095373;28;20466;-72
2022/04/25 05:32:27;;;;;;;3.57;2.30;;;;;;;;;;5095455;28;20942;-72
2022/04/25 05:34:55;;;;;;;3.03;2.30;;;;;;;;;;5095055;28;20829;-72
2022/04/25 05:37:22;;;;;;;2.63;2.30;;;;;;;;;;5095078;28;20458;-73
2022/04/25 05:39:50;;;;;;;3.90;2.47;;;;;;;;;;5095150;28;20490;-73
2022/04/25 05:42:17;;;;;;;4.47;2.77;;;;;;;;;;5095051;28;20963;-72
2022/04/25 05:44:44;;;;;;;3.20;2.17;;;;;;;;;;5094723;28;20447;-72
2022/04/25 05:47:12;;;;;;;5.70;3.70;;;;;;;;;;5094808;28;20455;-72
2022/04/25 05:52:24;;;;;;;4.13;2.80;;;;;;;;;;5094965;28;20422;-73
2022/04/25 05:54:52;;;;;;;10.57;6.70;;;;;;;;;;5094690;28;20978;-73
2022/04/25 05:57:20;;;;;;;6.10;4.40;;;;;;;;;;5094858;28;20451;-73
2022/04/25 05:59:47;;;;;;;6.50;5.00;;;;;;;;;;5094681;28;21023;-72
2022/04/25 06:02:16;;;;;;;3.97;3.43;;;;;;;;;;5094732;28;20939;-73
2022/04/25 06:04:44;;;;;;;5.60;3.67;;;;;;;;;;5094546;28;20458;-73
2022/04/25 06:07:11;;;;;;;5.33;4.13;;;;;;;;;;5094358;28;20525;-73
2022/04/25 06:09:38;;;;;;;5.60;4.23;;;;;;;;;;5094678;28;20499;-73
2022/04/25 06:12:07;;;;;;;6.53;4.20;;;;;;;;;;5094470;28;20458;-73
2022/04/25 06:14:34;;;;;;;9.30;6.40;;;;;;;;;;5094498;28;20446;-73
2022/04/25 06:17:01;;;;;;;7.27;4.70;;;;;;;;;;5094350;28;20975;-73
2022/04/25 06:19:29;;;;;;;6.30;4.90;;;;;;;;;;5094405;28;20869;-73
2022/04/25 06:21:56;;;;;;;6.73;5.67;;;;;;;;;;5094067;28;20455;-73
2022/04/25 06:24:23;;;;;;;8.47;5.90;;;;;;;;;;5094104;28;20459;-72
2022/04/25 06:26:50;;;;;;;10.60;6.37;;;;;;;;;;5094365;28;20515;-72
2022/04/25 06:29:18;;;;;;;11.10;7.27;;;;;;;;;;5094194;28;20494;-72
2022/04/25 06:31:45;;;;;;;9.50;6.97;;;;;;;;;;5094258;28;20825;-73
2022/04/25 06:34:12;;;;;;;11.70;8.47;;;;;;;;;;5093853;28;20450;-73
2022/04/25 06:36:40;;;;;;;10.07;7.43;;;;;;;;;;5094188;28;20462;-73
2022/04/25 06:39:07;;;;;;;11.47;7.60;;;;;;;;;;5094076;28;20499;-73
2022/04/25 06:41:34;;;;;;;9.80;8.00;;;;;;;;;;5094202;28;20447;-72
2022/04/25 06:44:01;;;;;;;11.87;8.90;;;;;;;;;;5093538;28;20485;-72
2022/04/25 06:46:30;;;;;;;9.60;7.70;;;;;;;;;;5094002;28;21019;-73
2022/04/25 06:51:41;;;;;;;9.37;7.73;;;;;;;;;;5094020;28;20434;-72
2022/04/25 06:54:08;;;;;;;12.93;8.37;;;;;;;;;;5093569;28;20458;-73
2022/04/25 06:56:36;;;;;;;10.30;8.60;;;;;;;;;;5093945;28;20451;-72
2022/04/25 06:59:03;;;;;;;11.53;8.53;;;;;;;;;;5093469;28;20492;-72
2022/04/25 07:01:32;;;;;;;14.10;9.40;;;;;;;;;;5093865;28;20463;-72
2022/04/25 07:03:59;;;;;;;13.63;8.90;;;;;;;;;;5093433;28;20469;-72
2022/04/25 07:06:26;;;;;;;12.93;9.40;;;;;;;;;;5091016;28;20946;-75
2022/04/25 07:08:54;;;;;;;11.97;9.13;;;;;;;;;;5076806;28;20468;-73
2022/04/25 07:11:21;;;;;;;12.93;9.30;;;;;;;;;;5072015;28;20452;-73
2022/04/25 07:13:48;;;;;;;11.63;7.63;;;;;;;;;;5071676;28;20447;-73
2022/04/25 07:16:15;;;;;;;13.90;10.17;;;;;;;;;;5071696;28;20452;-72
2022/04/25 07:18:44;;;;;;;13.50;9.70;;;;;;;;;;5071432;28;20511;-72
2022/04/25 07:29:22;;;;;;;14.47;9.80;;;;;;;;;;5091797;28;20446;-72
2022/04/25 07:31:51;;;;;;;17.00;10.80;;;;;;;;;;5091772;28;20446;-73
2022/04/25 07:34:19;;;;;;;14.30;11.43;;;;;;;;;;5091163;28;20905;-72
2022/04/25 07:36:51;;;;;;;13.77;9.83;;;;;;;;;;5093184;28;20486;-73
2022/04/25 07:39:18;;;;;;;14.13;10.20;;;;;;;;;;5092897;28;20512;-72
2022/04/25 07:41:45;;;;;;;15.87;10.60;;;;;;;;;;5093179;28;20457;-72
2022/04/25 07:44:12;;;;;;;14.73;11.20;;;;;;;;;;5092811;28;20457;-72
2022/04/25 07:46:40;;;;;;;17.40;12.33;;;;;;;;;;5093171;28;20974;-73
2022/04/25 07:49:07;;;;;;;12.17;9.73;;;;;;;;;;5092905;28;20462;-73
2022/04/25 07:51:36;;;;;;;12.97;9.23;;;;;;;;;;5093225;28;20487;-72
2022/04/25 07:54:04;;;;;;;11.73;9.47;;;;;;;;;;5092301;28;20818;-72
2022/04/25 07:56:32;;;;;;;10.47;9.10;;;;;;;;;;5092615;28;20494;-72
2022/04/25 07:59:00;;;;;;;11.43;9.60;;;;;;;;;;5092822;28;20560;-72
2022/04/25 08:01:27;;;;;;;11.83;9.40;;;;;;;;;;5092999;28;20956;-72
2022/04/25 08:03:54;;;;;;;13.60;11.30;;;;;;;;;;5092826;28;20955;-73
2022/04/25 08:06:21;;;;;;;13.37;10.60;;;;;;;;;;5092873;28;20458;-72
2022/04/25 08:08:50;;;;;;;12.60;10.30;;;;;;;;;;5092884;28;20512;-72
2022/04/25 08:11:17;;;;;;;15.07;10.70;;;;;;;;;;5092975;28;20914;-72
2022/04/25 08:19:14;;;;;;;13.97;10.80;;;;;;;;;;5092662;28;20494;-72
2022/04/25 08:21:41;;;;;;;15.10;10.73;;;;;;;;;;5092283;28;20458;-72
2022/04/25 08:24:10;;;;;;;12.77;9.87;;;;;;;;;;5092407;28;20469;-72
2022/04/25 08:26:37;;;;;;;14.40;11.70;;;;;;;;;;5092889;28;21017;-72
2022/04/25 08:29:05;;;;;;;11.43;9.03;;;;;;;;;;5093235;28;20983;-72
2022/04/25 08:31:32;;;;;;;11.90;10.50;;;;;;;;;;5096649;28;21061;-72
2022/04/25 08:34:00;;;;;;;13.20;11.23;;;;;;;;;;5096259;28;20465;-72
2022/04/25 08:36:27;;;;;;;11.20;9.07;;;;;;;;;;5096599;28;20450;-72
2022/04/25 08:38:54;;;;;;;12.00;10.90;;;;;;;;;;5096208;28;20544;-73
2022/04/25 08:41:25;;;;;;;13.73;10.20;;;;;;;;;;5096226;28;20483;-72
2022/04/25 08:43:53;;;;;;;13.13;10.93;;;;;;;;;;5096168;28;20445;-73
2022/04/25 08:46:21;;;;;;;12.00;10.23;;;;;;;;;;5096381;28;20451;-72
2022/04/25 08:48:49;;;;;;;10.27;9.17;;;;;;;;;;5096166;28;20507;-72
2022/04/25 08:51:16;;;;;;;13.20;11.10;;;;;;;;;;5096308;28;20446;-72
2022/04/25 08:53:45;;;;;;;11.27;10.10;;;;;;;;;;5096129;28;20797;-73
2022/04/25 08:56:13;;;;;;;10.83;9.80;;;;;;;;;;5096054;28;20458;-72
2022/04/25 08:58:42;;;;;;;10.87;9.77;;;;;;;;;;5096057;28;21007;-72
2022/04/25 09:01:10;;;;;;;13.57;11.30;;;;;;;;;;5096031;28;20487;-72
2022/04/25 09:03:37;;;;;;;14.73;11.70;;;;;;;;;;5095788;28;20482;-73
2022/04/25 09:06:06;;;;;;;12.47;9.40;;;;;;;;;;5095807;28;20502;-73
2022/04/25 09:08:33;;;;;;;13.23;10.57;;;;;;;;;;5095821;28;20474;-72
2022/04/25 09:13:43;;;;;;;11.03;9.80;;;;;;;;;;5095275;28;20932;-73
2022/04/25 09:16:13;;;;;;;9.20;8.30;;;;;;;;;;5095599;28;20527;-72
2022/04/25 09:18:40;;;;;;;9.70;8.70;;;;;;;;;;5095686;28;20470;-72
2022/04/25 09:21:07;;;;;;;9.30;8.20;;;;;;;;;;5095499;28;20495;-72
2022/04/25 09:23:35;;;;;;;9.10;8.20;;;;;;;;;;5095119;28;20467;-72
2022/04/25 09:26:11;;;;;;;11.97;9.60;;;;;;;;;;5095602;28;20446;-72
2022/04/25 09:28:50;;;;;;;11.80;8.77;;;;;;;;;;5095405;28;20474;-73
2022/04/25 09:31:18;;;;;;;10.80;9.20;;;;;;;;;;5095346;28;20455;-72
2022/04/25 09:33:45;;;;;;;9.83;8.50;;;;;;;;;;5095371;28;20462;-73
2022/04/25 09:36:14;;;;;;;10.80;9.60;;;;;;;;;;5095334;28;20455;-72
2022/04/25 09:38:41;;;;;;;10.03;9.03;;;;;;;;;;5095210;28;20906;-72
2022/04/25 09:41:09;;;;;;;10.23;9.23;;;;;;;;;;5094656;28;20490;-73
2022/04/25 09:43:38;;;;;;;11.40;10.30;;;;;;;;;;5095051;28;20447;-72
2022/04/25 09:46:08;;;;;;;11.80;9.47;;;;;;;;;;5095081;28;20462;-72
2022/04/25 09:48:35;;;;;;;13.77;10.17;;;;;;;;;;5095180;28;20470;-72
2022/04/25 09:51:02;;;;;;;11.90;9.70;;;;;;;;;;5095058;28;20455;-72
2022/04/25 09:53:46;;;;;;;10.20;9.20;;;;;;;;;;5094769;28;20458;-72
2022/04/25 09:56:14;;;;;;;10.00;9.00;;;;;;;;;;5094910;28;20845;-73
2022/04/25 09:58:42;;;;;;;10.40;9.30;;;;;;;;;;5094865;28;20979;-73
2022/04/25 10:01:15;;;;;;;9.23;8.13;;;;;;;;;;5094931;28;20486;-72
2022/04/25 10:03:43;;;;;;;10.60;9.50;;;;;;;;;;5094599;28;20497;-72
2022/04/25 10:06:10;;;;;;;11.57;10.30;;;;;;;;;;5094559;28;20459;-72
2022/04/25 10:08:38;;;;;;;9.80;8.70;;;;;;;;;;5094783;28;20501;-72
2022/04/25 10:11:06;;;;;;;10.83;9.83;;;;;;;;;;5094688;28;20500;-72
2022/04/25 10:13:33;;;;;;;9.90;8.90;;;;;;;;;;5094571;28;20450;-72
2022/04/25 10:16:00;;;;;;;10.30;9.30;;;;;;;;;;5094574;28;20802;-72
2022/04/25 10:18:31;;;;;;;10.80;9.13;;;;;;;;;;5094644;28;20450;-72
2022/04/25 10:20:59;;;;;;;11.10;9.90;;;;;;;;;;5094265;28;21019;-72
2022/04/25 10:23:26;;;;;;;9.50;8.60;;;;;;;;;;5093894;28;20497;-73
2022/04/25 10:25:54;;;;;;;9.30;8.17;;;;;;;;;;5094366;28;20459;-73
2022/04/25 10:28:28;;;;;;;10.17;9.17;;;;;;;;;;5094236;28;20455;-72
2022/04/25 10:31:01;;;;;;;9.87;8.87;;;;;;;;;;5094632;28;20458;-72
2022/04/25 10:33:48;;;;;;;9.87;8.97;;;;;;;;;;5094194;28;20451;-73
2022/04/25 10:36:42;;;;;;;9.13;8.07;;;;;;;;;;5094198;28;20478;-73
2022/04/25 10:39:13;;;;;;;10.73;9.63;;;;;;;;;;5094076;28;20477;-73
2022/04/25 10:44:49;;;;;;;10.33;8.90;;;;;;;;;;5067840;28;20427;-72
2022/04/25 10:47:18;;;;;;;11.13;10.03;;;;;;;;;;5094107;28;20788;-72
2022/04/25 10:49:47;;;;;;;10.37;9.37;;;;;;;;;;5093999;28;20484;-72
2022/04/25 10:52:51;;;;;;;11.20;10.10;;;;;;;;;;5093161;28;20573;-74
2022/04/25 10:55:22;;;;;;;10.10;9.10;;;;;;;;;;5031260;28;20977;-73
2022/04/25 10:58:10;;;;;;;12.07;9.97;;;;;;;;;;5083605;28;20462;-73
2022/04/25 11:00:53;;;;;;;11.83;9.40;;;;;;;;;;5089320;28;20533;-73
2022/04/25 11:03:23;;;;;;;9.63;8.63;;;;;;;;;;5093661;28;20451;-73
2022/04/25 11:05:51;;;;;;;10.30;9.20;;;;;;;;;;5093605;28;20455;-73
2022/04/25 11:08:25;;;;;;;12.40;11.30;;;;;;;;;;5093662;28;20461;-72
2022/04/25 11:10:59;;;;;;;10.63;9.63;;;;;;;;;;5093492;28;20447;-74
2022/04/25 11:13:28;;;;;;;11.97;10.60;;;;;;;;;;5093494;28;20489;-73
2022/04/25 11:15:56;;;;;;;11.43;10.23;;;;;;;;;;5093534;28;20951;-74
2022/04/25 11:18:26;;;;;;;11.03;9.93;;;;;;;;;;5093414;28;20451;-73
2022/04/25 11:20:58;;;;;;;23.30;14.60;;;;;;;;;;5093258;28;20490;-73
2022/04/25 11:23:26;;;;;;;11.30;10.20;;;;;;;;;;5092945;28;20462;-73
2022/04/25 11:25:55;;;;;;;10.63;9.60;;;;;;;;;;5093328;28;20451;-74
2022/04/25 11:28:22;;;;;;;9.73;8.73;;;;;;;;;;5093129;28;20531;-73
2022/04/25 11:31:05;;;;;;;19.50;14.67;;;;;;;;;;5093306;28;20454;-73
2022/04/25 11:33:42;;;;;;;10.67;9.67;;;;;;;;;;5093016;28;20795;-73
2022/04/25 11:36:11;;;;;;;11.03;9.97;;;;;;;;;;5093149;28;20561;-75
2022/04/25 11:41:23;;;;;;;10.77;9.63;;;;;;;;;;5093250;28;20555;-73
2022/04/25 11:43:51;;;;;;;29.43;19.00;;;;;;;;;;5092945;28;20478;-73
2022/04/25 11:46:18;;;;;;;107.60;56.80;;;;;;;;;;5093040;28;20463;-73
2022/04/25 11:48:48;;;;;;;32.77;22.07;;;;;;;;;;5093099;28;20911;-73
2022/04/25 11:51:24;;;;;;;10.10;9.10;;;;;;;;;;5093180;28;20971;-73
2022/04/25 11:53:53;;;;;;;10.60;9.43;;;;;;;;;;5092843;28;20806;-74
2022/04/25 11:56:21;;;;;;;9.23;8.20;;;;;;;;;;5092994;28;20474;-73
2022/04/25 11:58:49;;;;;;;11.73;10.53;;;;;;;;;;5092908;28;20513;-74
2022/04/25 12:01:32;;;;;;;10.73;9.63;;;;;;;;;;5092712;28;20501;-73
2022/04/25 12:04:14;;;;;;;11.03;8.60;;;;;;;;;;5093249;28;20944;-74
2022/04/25 12:06:47;;;;;;;9.30;8.50;;;;;;;;;;5097150;28;20967;-73
2022/04/25 12:17:36;;;;;;;8.53;7.63;;;;;;;;;;5096911;28;20471;-73
2022/04/25 12:20:04;;;;;;;8.37;7.60;;;;;;;;;;5096576;28;20492;-74
2022/04/25 12:22:32;;;;;;;9.30;8.40;;;;;;;;;;5096259;28;20515;-73
2022/04/25 12:25:15;;;;;;;9.13;8.30;;;;;;;;;;5096497;28;20462;-73
2022/04/25 12:28:02;;;;;;;10.23;9.13;;;;;;;;;;5096713;28;20548;-72
2022/04/25 12:30:30;;;;;;;8.13;7.33;;;;;;;;;;5096632;28;20970;-73
2022/04/25 12:33:08;;;;;;;8.63;7.87;;;;;;;;;;5096482;28;20457;-73
2022/04/25 12:35:35;;;;;;;10.17;8.73;;;;;;;;;;5096363;28;20481;-73
2022/04/25 12:38:04;;;;;;;7.63;6.90;;;;;;;;;;5096402;28;20454;-73
2022/04/25 12:40:31;;;;;;;8.80;7.90;;;;;;;;;;5096561;28;20490;-73
2022/04/25 12:42:59;;;;;;;9.50;8.60;;;;;;;;;;5096366;28;20481;-73
2022/04/25 12:45:26;;;;;;;10.77;9.27;;;;;;;;;;5096334;28;20454;-73
2022/04/25 12:47:56;;;;;;;8.37;7.50;;;;;;;;;;5096217;28;20454;-73
2022/04/25 12:50:44;;;;;;;8.83;7.93;;;;;;;;;;5096268;28;20467;-72
2022/04/25 12:53:12;;;;;;;8.20;7.10;;;;;;;;;;5096173;28;20966;-73
2022/04/25 12:55:43;;;;;;;8.13;7.43;;;;;;;;;;5095958;28;20462;-73
2022/04/25 12:58:11;;;;;;;9.90;7.77;;;;;;;;;;5095910;28;20482;-73
2022/04/25 13:00:41;;;;;;;9.47;8.57;;;;;;;;;;5096344;28;20867;-72
2022/04/25 13:03:08;;;;;;;9.83;8.23;;;;;;;;;;5096007;28;20454;-73
2022/04/25 13:05:35;;;;;;;7.97;7.10;;;;;;;;;;5095725;28;20463;-73
2022/04/25 13:08:02;;;;;;;7.43;6.73;;;;;;;;;;5095700;28;20474;-73
2022/04/25 13:10:31;;;;;;;9.10;7.70;;;;;;;;;;5095804;28;20462;-72
2022/04/25 13:12:58;;;;;;;8.00;7.00;;;;;;;;;;5095755;28;20457;-72
2022/04/25 13:15:26;;;;;;;7.60;6.83;;;;;;;;;;5094875;28;20462;-72
2022/04/25 13:17:54;;;;;;;7.60;6.80;;;;;;;;;;5095342;28;20485;-73
2022/04/25 13:20:22;;;;;;;6.30;5.80;;;;;;;;;;5095784;28;20501;-72
2022/04/25 13:22:50;;;;;;;7.20;6.50;;;;;;;;;;5095265;28;20844;-72
2022/04/25 13:25:19;;;;;;;10.10;7.37;;;;;;;;;;5095328;28;20451;-72
2022/04/25 13:27:48;;;;;;;8.07;6.80;;;;;;;;;;5095685;28;20454;-72
2022/04/25 13:30:16;;;;;;;8.90;7.50;;;;;;;;;;5095654;28;20466;-72
2022/04/25 13:32:44;;;;;;;11.57;7.13;;;;;;;;;;5095392;28;20461;-72
2022/04/25 13:35:12;;;;;;;11.40;7.43;;;;;;;;;;5095275;28;20935;-72
2022/04/25 13:37:39;;;;;;;8.93;8.03;;;;;;;;;;5095460;28;20504;-71
2022/04/25 13:40:08;;;;;;;31.17;23.27;;;;;;;;;;5095079;28;20471;-73
2022/04/25 13:42:35;;;;;;;12.03;9.03;;;;;;;;;;5095600;28;20504;-73
2022/04/25 13:45:05;;;;;;;28.73;22.03;;;;;;;;;;5095311;28;20512;-72
2022/04/25 13:47:32;;;;;;;9.33;8.23;;;;;;;;;;5095464;28;20549;-72
2022/04/25 13:50:00;;;;;;;9.87;8.80;;;;;;;;;;5095051;28;20510;-72
2022/04/25 13:52:27;;;;;;;35.90;31.03;;;;;;;;;;5095130;28;20985;-72
2022/04/25 13:54:54;;;;;;;25.03;20.53;;;;;;;;;;5094917;28;20457;-72
2022/04/25 13:57:21;;;;;;;13.90;12.53;;;;;;;;;;5095041;28;20466;-72
2022/04/25 13:59:48;;;;;;;11.07;8.97;;;;;;;;;;5094860;28;20477;-72
2022/04/25 14:05:01;;;;;;;11.43;7.57;;;;;;;;;;5094666;28;20997;-72
2022/04/25 14:07:28;;;;;;;7.27;6.53;;;;;;;;;;5094786;28;20803;-72
2022/04/25 14:09:55;;;;;;;10.53;6.93;;;;;;;;;;5094548;28;20561;-72
2022/04/25 14:12:23;;;;;;;9.40;8.47;;;;;;;;;;5094912;28;20451;-72
2022/04/25 14:14:50;;;;;;;10.70;6.87;;;;;;;;;;5094751;28;20457;-72
2022/04/25 14:17:19;;;;;;;9.00;8.10;;;;;;;;;;5094513;28;20443;-72
2022/04/25 14:19:46;;;;;;;8.23;7.17;;;;;;;;;;5094559;28;20558;-72
2022/04/25 14:22:13;;;;;;;7.77;7.00;;;;;;;;;;5094275;28;21022;-72
2022/04/25 14:24:41;;;;;;;7.33;6.63;;;;;;;;;;5094097;28;20955;-72
2022/04/25 14:27:08;;;;;;;6.20;5.60;;;;;;;;;;5094049;28;20870;-72
2022/04/25 14:29:35;;;;;;;6.63;5.57;;;;;;;;;;5094365;28;20844;-72
2022/04/25 14:32:02;;;;;;;6.87;6.20;;;;;;;;;;5094402;28;20451;-72
2022/04/25 14:34:31;;;;;;;8.13;6.70;;;;;;;;;;5093005;28;20478;-72
2022/04/25 14:36:59;;;;;;;7.07;6.47;;;;;;;;;;5094209;28;20465;-73
2022/04/25 14:39:26;;;;;;;9.90;6.30;;;;;;;;;;5094279;28;20473;-72
2022/04/25 14:41:53;;;;;;;9.57;6.87;;;;;;;;;;5094071;28;20487;-72
2022/04/25 14:44:20;;;;;;;7.67;6.50;;;;;;;;;;5093844;28;20457;-72
2022/04/25 14:46:48;;;;;;;6.77;6.10;;;;;;;;;;5094260;28;20450;-72
2022/04/25 14:49:19;;;;;;;9.30;6.80;;;;;;;;;;5093881;28;21047;-72
2022/04/25 14:54:35;;;;;;;8.17;6.13;;;;;;;;;;5093801;28;20988;-72
2022/04/25 14:57:02;;;;;;;6.97;6.27;;;;;;;;;;5093958;28;20458;-72
2022/04/25 14:59:29;;;;;;;7.77;5.60;;;;;;;;;;5093782;28;20467;-72
2022/04/25 15:01:58;;;;;;;6.53;5.93;;;;;;;;;;5093702;28;20478;-72
2022/04/25 15:04:25;;;;;;;8.57;7.77;;;;;;;;;;5093753;28;20454;-72
2022/04/25 15:06:53;;;;;;;9.20;7.00;;;;;;;;;;5093632;28;20462;-72
2022/04/25 15:09:21;;;;;;;13.87;12.47;;;;;;;;;;5093640;28;20991;-72
2022/04/25 15:11:48;;;;;;;8.20;7.40;;;;;;;;;;5093930;28;20530;-72
2022/04/25 15:14:15;;;;;;;22.30;20.30;;;;;;;;;;5093400;28;20454;-72
2022/04/25 15:16:42;;;;;;;10.60;9.53;;;;;;;;;;5093777;28;20478;-72
2022/04/25 15:19:09;;;;;;;13.20;11.80;;;;;;;;;;5093282;28;20495;-72
2022/04/25 15:21:36;;;;;;;6.27;5.73;;;;;;;;;;5093226;28;20486;-72
2022/04/25 15:24:05;;;;;;;8.00;7.20;;;;;;;;;;5093181;28;20462;-72
2022/04/25 15:26:32;;;;;;;10.20;9.30;;;;;;;;;;5093429;28;20447;-72
2022/04/25 15:28:59;;;;;;;8.77;5.80;;;;;;;;;;5093339;28;20467;-72
2022/04/25 15:31:27;;;;;;;6.30;5.70;;;;;;;;;;5093541;28;20936;-73